Time;durP1;ratioP1;P1;durP2;ratioP2;P2;SDS_P1;SDS_P2;PMS_P1;PMS_P2;Temp;Humidity;BMP_temperature;BMP_pressure;BME280_temperature;BME280_humidity;BME280_pressure;Samples;Min_cycle;Max_cycle;Signal;HPM_P1;HPM_P2
2023/03/10 00:01:55;;;;;;;9.27;2.72;;;;;;;;;;5026386;28;20500;-64
2023/03/10 00:06:49;;;;;;;9.68;2.65;;;;;;;;;;4952437;28;20176;-66
2023/03/10 00:09:14;;;;;;;11.57;2.67;;;;;;;;;;4976167;28;20038;-64
2023/03/10 00:11:40;;;;;;;11.80;2.50;;;;;;;;;;4972631;28;20033;-65
2023/03/10 00:14:05;;;;;;;13.02;3.08;;;;;;;;;;4971588;28;20164;-65
2023/03/10 00:16:30;;;;;;;10.65;2.30;;;;;;;;;;4970291;28;20035;-65
2023/03/10 00:18:55;;;;;;;9.03;1.90;;;;;;;;;;4969644;28;20046;-65
2023/03/10 00:21:23;;;;;;;11.60;2.20;;;;;;;;;;4971097;28;20029;-65
2023/03/10 00:23:48;;;;;;;10.60;2.20;;;;;;;;;;4965119;28;20053;-65
2023/03/10 00:26:14;;;;;;;11.27;2.50;;;;;;;;;;4969936;28;20474;-66
2023/03/10 00:28:40;;;;;;;13.50;2.45;;;;;;;;;;4969529;28;20023;-66
2023/03/10 00:31:07;;;;;;;10.90;1.98;;;;;;;;;;4970455;28;20031;-66
2023/03/10 00:33:33;;;;;;;12.70;3.00;;;;;;;;;;4969655;28;20242;-67
2023/03/10 00:36:03;;;;;;;17.17;2.40;;;;;;;;;;4968513;28;20023;-66
2023/03/10 00:38:28;;;;;;;10.48;2.20;;;;;;;;;;4969791;28;20023;-68
2023/03/10 00:40:57;;;;;;;13.25;2.03;;;;;;;;;;4971047;28;20086;-66
2023/03/10 00:43:22;;;;;;;6.20;1.90;;;;;;;;;;4967951;28;20027;-66
2023/03/10 00:45:47;;;;;;;10.10;1.97;;;;;;;;;;4970377;28;20074;-67
2023/03/10 00:48:12;;;;;;;10.05;2.38;;;;;;;;;;4972469;28;20026;-65
2023/03/10 00:50:37;;;;;;;9.82;2.30;;;;;;;;;;4969275;28;20061;-66
2023/03/10 00:53:02;;;;;;;8.33;2.07;;;;;;;;;;4967218;28;20052;-66
2023/03/10 00:55:27;;;;;;;10.55;2.40;;;;;;;;;;4971036;28;20035;-65
2023/03/10 00:57:52;;;;;;;8.02;1.80;;;;;;;;;;4967861;28;20033;-65
2023/03/10 01:00:18;;;;;;;7.80;1.90;;;;;;;;;;4966259;28;20383;-65
2023/03/10 01:02:43;;;;;;;12.23;2.05;;;;;;;;;;4970603;28;20034;-66
2023/03/10 01:05:09;;;;;;;10.07;1.90;;;;;;;;;;4970171;28;20031;-66
2023/03/10 01:07:34;;;;;;;11.55;2.08;;;;;;;;;;4968495;28;20512;-67
2023/03/10 01:10:00;;;;;;;16.77;1.80;;;;;;;;;;4967056;28;20038;-66
2023/03/10 01:12:25;;;;;;;11.07;2.10;;;;;;;;;;4970241;28;20590;-65
2023/03/10 01:14:50;;;;;;;9.27;1.60;;;;;;;;;;4970356;28;20058;-65
2023/03/10 01:17:17;;;;;;;9.00;1.60;;;;;;;;;;4969075;28;20470;-66
2023/03/10 01:19:42;;;;;;;9.23;1.60;;;;;;;;;;4970928;28;20023;-64
2023/03/10 01:22:07;;;;;;;10.30;1.73;;;;;;;;;;4970199;28;21653;-67
2023/03/10 01:24:32;;;;;;;7.80;1.48;;;;;;;;;;4969665;28;20084;-66
2023/03/10 01:26:57;;;;;;;7.72;1.73;;;;;;;;;;4968807;28;20023;-67
2023/03/10 01:29:23;;;;;;;9.57;1.70;;;;;;;;;;4967928;28;20022;-65
2023/03/10 01:31:48;;;;;;;9.85;1.77;;;;;;;;;;4969696;28;20120;-66
2023/03/10 01:34:13;;;;;;;8.93;1.25;;;;;;;;;;4969823;28;20038;-66
2023/03/10 01:36:39;;;;;;;12.43;1.65;;;;;;;;;;4966447;28;20039;-65
2023/03/10 01:39:05;;;;;;;7.25;1.25;;;;;;;;;;4970012;28;20061;-65
2023/03/10 01:41:30;;;;;;;8.00;1.45;;;;;;;;;;4969547;28;20070;-65
2023/03/10 01:43:55;;;;;;;12.00;1.50;;;;;;;;;;4968140;28;20045;-64
2023/03/10 01:46:29;;;;;;;4.68;1.35;;;;;;;;;;4968983;28;20556;-66
2023/03/10 01:48:56;;;;;;;10.80;1.63;;;;;;;;;;4968567;28;20030;-69
2023/03/10 01:51:21;;;;;;;8.68;1.30;;;;;;;;;;4963937;28;20026;-65
2023/03/10 01:53:46;;;;;;;8.00;1.30;;;;;;;;;;4967899;28;20527;-65
2023/03/10 01:56:12;;;;;;;9.23;1.57;;;;;;;;;;4970925;28;20077;-65
2023/03/10 01:58:41;;;;;;;7.88;1.92;;;;;;;;;;4975405;28;20397;-66
2023/03/10 02:01:06;;;;;;;6.38;1.90;;;;;;;;;;4976860;28;20062;-65
2023/03/10 02:03:33;;;;;;;9.50;1.75;;;;;;;;;;4975592;28;20054;-66
2023/03/10 02:06:00;;;;;;;9.82;2.20;;;;;;;;;;4974247;28;20406;-64
2023/03/10 02:08:25;;;;;;;;;;;;;;;;;;4977811;28;20105;-65
2023/03/10 02:10:51;;;;;;;8.13;2.08;;;;;;;;;;4977469;28;20005;-65
2023/03/10 02:13:16;;;;;;;8.35;2.15;;;;;;;;;;4978158;28;20059;-67
2023/03/10 02:15:41;;;;;;;6.35;2.22;;;;;;;;;;4977047;28;20090;-66
2023/03/10 02:18:08;;;;;;;7.83;2.40;;;;;;;;;;4977875;28;20109;-66
2023/03/10 02:20:44;;;;;;;7.90;2.58;;;;;;;;;;4978860;28;20105;-65
2023/03/10 02:23:13;;;;;;;8.88;2.60;;;;;;;;;;4977218;28;20026;-66
2023/03/10 02:25:44;;;;;;;8.38;2.85;;;;;;;;;;4975171;28;20035;-66
2023/03/10 02:28:09;;;;;;;8.35;2.20;;;;;;;;;;4976962;28;20110;-65
2023/03/10 02:30:40;;;;;;;5.77;1.60;;;;;;;;;;4977877;28;20046;-66
2023/03/10 02:33:08;;;;;;;6.22;1.58;;;;;;;;;;4972460;28;20026;-64
2023/03/10 02:35:33;;;;;;;9.82;1.50;;;;;;;;;;4980398;28;20015;-65
2023/03/10 02:37:58;;;;;;;5.97;1.33;;;;;;;;;;4979345;28;20037;-67
2023/03/10 02:40:24;;;;;;;5.80;0.90;;;;;;;;;;4986310;28;20102;-66
2023/03/10 02:42:49;;;;;;;7.30;1.20;;;;;;;;;;4978982;28;20031;-68
2023/03/10 02:45:15;;;;;;;7.38;1.15;;;;;;;;;;4974430;28;20106;-66
2023/03/10 02:47:40;;;;;;;6.60;1.30;;;;;;;;;;4975545;28;20019;-67
2023/03/10 02:50:07;;;;;;;6.38;1.05;;;;;;;;;;4976296;28;20026;-66
2023/03/10 02:52:38;;;;;;;6.45;1.17;;;;;;;;;;4973872;28;20389;-65
2023/03/10 02:55:03;;;;;;;6.60;1.27;;;;;;;;;;4976275;28;20030;-65
2023/03/10 02:57:29;;;;;;;9.43;1.40;;;;;;;;;;4975698;28;20041;-65
2023/03/10 02:59:54;;;;;;;6.25;0.88;;;;;;;;;;4975438;28;20019;-65
2023/03/10 03:02:19;;;;;;;7.60;1.30;;;;;;;;;;4973744;28;20023;-64
2023/03/10 03:04:44;;;;;;;5.20;1.05;;;;;;;;;;4970369;28;20090;-66
2023/03/10 03:07:09;;;;;;;5.43;1.10;;;;;;;;;;4972766;28;20023;-64
2023/03/10 03:09:34;;;;;;;4.13;1.07;;;;;;;;;;4972548;28;20030;-64
2023/03/10 03:12:00;;;;;;;6.70;1.10;;;;;;;;;;4970300;28;20030;-63
2023/03/10 03:14:25;;;;;;;7.72;1.30;;;;;;;;;;4973119;28;20023;-66
2023/03/10 03:16:50;;;;;;;4.97;1.10;;;;;;;;;;4969246;28;20141;-66
2023/03/10 03:19:15;;;;;;;6.82;1.20;;;;;;;;;;4970658;28;20019;-67
2023/03/10 03:21:41;;;;;;;7.67;1.10;;;;;;;;;;4971730;28;20069;-66
2023/03/10 03:24:06;;;;;;;7.15;1.20;;;;;;;;;;4968737;28;20039;-66
2023/03/10 03:26:31;;;;;;;5.80;1.13;;;;;;;;;;4972886;28;20030;-65
2023/03/10 03:28:56;;;;;;;6.67;0.93;;;;;;;;;;4973757;28;20150;-65
2023/03/10 03:31:22;;;;;;;6.43;1.13;;;;;;;;;;4971183;28;20023;-66
2023/03/10 03:33:48;;;;;;;4.97;1.20;;;;;;;;;;4972075;28;20058;-66
2023/03/10 03:36:13;;;;;;;8.80;1.33;;;;;;;;;;4971879;28;20069;-65
2023/03/10 03:38:38;;;;;;;4.80;1.17;;;;;;;;;;4971337;28;21070;-65
2023/03/10 03:41:04;;;;;;;6.43;1.30;;;;;;;;;;4972525;28;20034;-66
2023/03/10 03:43:29;;;;;;;6.18;1.27;;;;;;;;;;4969825;28;20480;-65
2023/03/10 03:45:54;;;;;;;5.87;1.17;;;;;;;;;;4970871;28;20114;-65
2023/03/10 03:48:20;;;;;;;7.40;1.52;;;;;;;;;;4969852;28;20632;-66
2023/03/10 03:50:46;;;;;;;6.60;1.30;;;;;;;;;;4967939;28;20031;-66
2023/03/10 03:53:12;;;;;;;8.48;2.08;;;;;;;;;;4967806;28;20030;-65
2023/03/10 03:55:37;;;;;;;7.33;2.73;;;;;;;;;;4972290;28;20019;-66
2023/03/10 03:58:02;;;;;;;10.17;3.20;;;;;;;;;;4972592;28;20070;-67
2023/03/10 04:00:27;;;;;;;11.82;3.30;;;;;;;;;;4970470;28;20101;-66
2023/03/10 04:02:52;;;;;;;10.30;3.70;;;;;;;;;;4970975;28;20117;-65
2023/03/10 04:05:17;;;;;;;10.30;3.85;;;;;;;;;;4969684;28;20016;-67
2023/03/10 04:07:43;;;;;;;12.40;4.30;;;;;;;;;;4973527;28;20038;-66
2023/03/10 04:10:09;;;;;;;9.23;3.60;;;;;;;;;;4973366;28;20105;-64
2023/03/10 04:12:35;;;;;;;10.93;4.45;;;;;;;;;;4969873;28;20469;-64
2023/03/10 04:15:00;;;;;;;12.90;5.00;;;;;;;;;;4969897;28;20489;-65
2023/03/10 04:17:25;;;;;;;13.02;5.00;;;;;;;;;;4970435;28;20050;-66
2023/03/10 04:19:50;;;;;;;13.65;4.80;;;;;;;;;;4967817;28;20066;-65
2023/03/10 04:22:15;;;;;;;9.52;4.03;;;;;;;;;;4968661;28;20439;-64
2023/03/10 04:24:40;;;;;;;10.45;4.88;;;;;;;;;;4971293;28;20019;-66
2023/03/10 04:27:08;;;;;;;9.77;4.32;;;;;;;;;;4971101;28;20038;-65
2023/03/10 04:29:34;;;;;;;13.25;4.53;;;;;;;;;;4971179;28;20030;-66
2023/03/10 04:31:59;;;;;;;10.50;4.60;;;;;;;;;;4971950;28;20106;-65
2023/03/10 04:34:24;;;;;;;7.63;3.97;;;;;;;;;;4972693;28;20456;-65
2023/03/10 04:36:50;;;;;;;8.23;3.35;;;;;;;;;;4976310;28;20030;-65
2023/03/10 04:39:15;;;;;;;6.50;2.33;;;;;;;;;;4970945;28;20085;-65
2023/03/10 04:41:40;;;;;;;8.18;2.00;;;;;;;;;;4972640;28;20457;-66
2023/03/10 04:44:06;;;;;;;5.55;1.00;;;;;;;;;;4972102;28;20023;-66
2023/03/10 04:46:31;;;;;;;3.90;0.90;;;;;;;;;;4971709;28;20483;-64
2023/03/10 04:48:56;;;;;;;4.38;0.82;;;;;;;;;;4972336;28;20055;-67
2023/03/10 04:51:21;;;;;;;4.13;0.80;;;;;;;;;;4970234;28;20065;-63
2023/03/10 04:53:47;;;;;;;2.67;0.70;;;;;;;;;;4970482;28;20367;-66
2023/03/10 04:56:12;;;;;;;3.17;0.80;;;;;;;;;;4969634;28;20027;-64
2023/03/10 04:58:37;;;;;;;4.03;0.73;;;;;;;;;;4970219;28;20113;-65
2023/03/10 05:01:06;;;;;;;2.73;0.70;;;;;;;;;;4971353;28;20111;-65
2023/03/10 05:03:31;;;;;;;3.67;0.80;;;;;;;;;;4970226;28;20093;-63
2023/03/10 05:05:57;;;;;;;3.00;0.60;;;;;;;;;;4967760;28;20076;-66
2023/03/10 05:08:22;;;;;;;3.63;1.10;;;;;;;;;;4971173;28;20034;-65
2023/03/10 05:10:47;;;;;;;6.63;0.90;;;;;;;;;;4971853;28;20011;-64
2023/03/10 05:13:12;;;;;;;3.83;0.70;;;;;;;;;;4972240;28;20202;-63
2023/03/10 05:15:38;;;;;;;7.05;0.95;;;;;;;;;;4967257;28;20053;-64
2023/03/10 05:18:04;;;;;;;4.70;0.95;;;;;;;;;;4969226;28;20182;-65
2023/03/10 05:20:29;;;;;;;3.88;0.77;;;;;;;;;;4972629;28;20537;-65
2023/03/10 05:22:54;;;;;;;3.40;0.77;;;;;;;;;;4985515;28;20018;-65
2023/03/10 05:25:19;;;;;;;5.13;0.95;;;;;;;;;;4980106;28;20046;-64
2023/03/10 05:27:45;;;;;;;2.90;0.70;;;;;;;;;;4986945;28;20948;-66
2023/03/10 05:30:10;;;;;;;5.35;0.80;;;;;;;;;;4977078;28;20030;-67
2023/03/10 05:32:36;;;;;;;4.22;0.90;;;;;;;;;;4971750;28;20031;-65
2023/03/10 05:35:01;;;;;;;3.93;1.37;;;;;;;;;;4970035;28;20502;-66
2023/03/10 05:37:26;;;;;;;4.53;0.80;;;;;;;;;;4969359;28;20129;-65
2023/03/10 05:39:51;;;;;;;5.07;0.90;;;;;;;;;;4968376;28;20129;-66
2023/03/10 05:42:17;;;;;;;1.85;0.60;;;;;;;;;;4964573;28;20038;-66
2023/03/10 05:44:42;;;;;;;3.90;0.80;;;;;;;;;;4966196;28;20363;-66
2023/03/10 05:47:07;;;;;;;4.20;0.85;;;;;;;;;;4966330;28;20027;-65
2023/03/10 05:49:32;;;;;;;3.47;0.73;;;;;;;;;;4968209;28;20536;-66
2023/03/10 05:51:57;;;;;;;2.83;0.80;;;;;;;;;;4961441;28;20482;-65
2023/03/10 05:54:23;;;;;;;4.13;1.15;;;;;;;;;;4965027;28;20094;-66
2023/03/10 05:56:48;;;;;;;4.27;0.73;;;;;;;;;;4965679;28;20082;-66
2023/03/10 05:59:13;;;;;;;4.50;0.80;;;;;;;;;;4968759;28;20069;-65
2023/03/10 06:01:38;;;;;;;3.88;0.90;;;;;;;;;;4968420;28;20050;-65
2023/03/10 06:04:03;;;;;;;4.57;0.90;;;;;;;;;;4967233;28;20023;-65
2023/03/10 06:06:29;;;;;;;3.20;0.70;;;;;;;;;;4964858;28;20129;-63
2023/03/10 06:08:54;;;;;;;5.05;0.80;;;;;;;;;;4977559;28;20712;-65
2023/03/10 06:11:19;;;;;;;5.40;0.93;;;;;;;;;;4966608;28;20454;-67
2023/03/10 06:13:44;;;;;;;2.67;0.80;;;;;;;;;;4965609;28;20023;-66
2023/03/10 06:16:10;;;;;;;3.42;0.70;;;;;;;;;;4965206;28;20026;-65
2023/03/10 06:18:35;;;;;;;3.22;1.00;;;;;;;;;;4965637;28;20058;-65
2023/03/10 06:21:07;;;;;;;3.27;0.80;;;;;;;;;;4969811;28;20450;-65
2023/03/10 06:23:32;;;;;;;2.75;0.63;;;;;;;;;;4969732;28;20446;-65
2023/03/10 06:25:58;;;;;;;4.03;0.75;;;;;;;;;;4967602;28;20058;-65
2023/03/10 06:28:24;;;;;;;5.05;0.80;;;;;;;;;;4971000;28;20478;-66
2023/03/10 06:30:53;;;;;;;3.22;0.65;;;;;;;;;;4970415;28;20030;-65
2023/03/10 06:33:18;;;;;;;2.20;0.70;;;;;;;;;;4971146;28;20032;-66
2023/03/10 06:35:43;;;;;;;5.22;0.90;;;;;;;;;;4970873;28;20023;-66
2023/03/10 06:38:08;;;;;;;2.10;0.60;;;;;;;;;;4970939;28;20708;-65
2023/03/10 06:40:33;;;;;;;3.28;0.70;;;;;;;;;;4963781;28;20039;-64
2023/03/10 06:42:58;;;;;;;2.88;0.50;;;;;;;;;;4973978;28;20027;-67
2023/03/10 06:45:24;;;;;;;2.92;0.60;;;;;;;;;;4974710;28;20525;-64
2023/03/10 06:47:49;;;;;;;2.45;0.60;;;;;;;;;;4974234;28;20058;-66
2023/03/10 06:50:14;;;;;;;3.80;0.73;;;;;;;;;;4974735;28;20019;-65
2023/03/10 06:52:41;;;;;;;1.80;0.50;;;;;;;;;;4974622;28;20047;-67
2023/03/10 06:55:06;;;;;;;3.30;0.55;;;;;;;;;;4972535;28;20022;-66
2023/03/10 06:57:32;;;;;;;2.60;0.63;;;;;;;;;;4965546;28;20387;-66
2023/03/10 06:59:57;;;;;;;2.22;0.50;;;;;;;;;;4967846;28;20069;-66
2023/03/10 07:02:22;;;;;;;3.37;0.60;;;;;;;;;;4975297;28;20031;-66
2023/03/10 07:04:48;;;;;;;3.60;0.80;;;;;;;;;;4971587;28;20034;-67
2023/03/10 07:07:13;;;;;;;2.67;0.53;;;;;;;;;;4973909;28;20086;-65
2023/03/10 07:09:38;;;;;;;2.45;0.63;;;;;;;;;;4971443;28;20018;-65
2023/03/10 07:12:04;;;;;;;3.90;0.70;;;;;;;;;;4973084;28;20035;-65
2023/03/10 07:14:29;;;;;;;3.13;0.70;;;;;;;;;;4973617;28;20030;-66
2023/03/10 07:16:54;;;;;;;2.10;0.50;;;;;;;;;;4975496;28;20495;-65
2023/03/10 07:19:19;;;;;;;2.88;0.50;;;;;;;;;;4971118;28;20034;-65
2023/03/10 07:21:44;;;;;;;3.27;0.50;;;;;;;;;;4972396;28;20034;-65
2023/03/10 07:24:10;;;;;;;3.17;0.60;;;;;;;;;;4973435;28;20469;-65
2023/03/10 07:26:35;;;;;;;3.33;0.60;;;;;;;;;;4971331;28;20034;-65
2023/03/10 07:29:01;;;;;;;2.93;0.80;;;;;;;;;;4973509;28;20507;-64
2023/03/10 07:31:26;;;;;;;2.75;0.68;;;;;;;;;;4973602;28;20038;-66
2023/03/10 07:33:51;;;;;;;2.50;0.50;;;;;;;;;;4972105;28;20038;-66
2023/03/10 07:36:17;;;;;;;2.60;0.57;;;;;;;;;;4973316;28;20500;-65
2023/03/10 07:38:42;;;;;;;2.50;0.70;;;;;;;;;;4973386;28;20026;-64
2023/03/10 07:41:08;;;;;;;2.47;0.50;;;;;;;;;;4970441;28;20019;-65
2023/03/10 07:43:34;;;;;;;2.55;0.82;;;;;;;;;;4972083;28;20033;-64
2023/03/10 07:46:02;;;;;;;3.47;0.60;;;;;;;;;;4971919;28;20101;-65
2023/03/10 07:48:27;;;;;;;2.38;0.50;;;;;;;;;;4971246;28;20114;-65
2023/03/10 07:50:56;;;;;;;1.30;0.52;;;;;;;;;;4972736;28;20065;-66
2023/03/10 07:53:21;;;;;;;2.10;0.60;;;;;;;;;;4971216;28;20042;-64
2023/03/10 07:55:46;;;;;;;2.33;0.50;;;;;;;;;;4969265;28;20027;-65
2023/03/10 07:58:11;;;;;;;1.70;0.45;;;;;;;;;;4971394;28;20391;-65
2023/03/10 08:00:37;;;;;;;1.67;0.50;;;;;;;;;;4971660;28;20101;-65
2023/03/10 08:03:02;;;;;;;2.20;0.55;;;;;;;;;;4969683;28;20038;-63
2023/03/10 08:05:27;;;;;;;2.13;0.77;;;;;;;;;;4967207;28;20502;-64
2023/03/10 08:07:52;;;;;;;3.17;0.87;;;;;;;;;;4973329;28;20119;-65
2023/03/10 08:10:17;;;;;;;1.58;0.43;;;;;;;;;;4974373;28;20110;-66
2023/03/10 08:12:42;;;;;;;2.00;0.50;;;;;;;;;;4981990;28;20094;-66
2023/03/10 08:15:09;;;;;;;1.57;0.30;;;;;;;;;;4983744;28;20376;-65
2023/03/10 08:17:35;;;;;;;2.40;0.43;;;;;;;;;;4975249;28;20034;-65
2023/03/10 08:20:00;;;;;;;2.80;0.75;;;;;;;;;;4974695;28;20393;-64
2023/03/10 08:22:26;;;;;;;1.92;0.47;;;;;;;;;;4972564;28;20019;-64
2023/03/10 08:24:51;;;;;;;1.67;0.50;;;;;;;;;;4971840;28;20031;-65
2023/03/10 08:27:16;;;;;;;2.13;0.47;;;;;;;;;;4973453;28;20047;-65
2023/03/10 08:29:41;;;;;;;1.75;0.50;;;;;;;;;;4973199;28;20027;-65
2023/03/10 08:32:06;;;;;;;2.20;0.50;;;;;;;;;;4971948;28;20086;-66
2023/03/10 08:34:35;;;;;;;3.53;0.60;;;;;;;;;;4966692;28;20027;-65
2023/03/10 08:37:00;;;;;;;3.00;0.75;;;;;;;;;;4970060;28;20150;-65
2023/03/10 08:39:26;;;;;;;1.60;0.50;;;;;;;;;;4973313;28;20436;-66
2023/03/10 08:41:51;;;;;;;1.92;0.47;;;;;;;;;;4972363;28;20043;-67
2023/03/10 08:44:17;;;;;;;1.95;0.50;;;;;;;;;;4968257;28;20023;-67
2023/03/10 08:46:43;;;;;;;1.83;0.40;;;;;;;;;;4965667;28;20061;-65
2023/03/10 08:49:08;;;;;;;;;;;;;;;;;;4973943;28;20439;-66
2023/03/10 08:51:34;;;;;;;1.95;0.50;;;;;;;;;;4988094;28;20361;-65
2023/03/10 08:53:59;;;;;;;2.47;0.70;;;;;;;;;;4971625;28;20054;-67
2023/03/10 08:56:25;;;;;;;2.17;0.73;;;;;;;;;;4965043;28;20021;-67
2023/03/10 08:58:53;;;;;;;2.85;0.70;;;;;;;;;;4973359;28;20107;-66
2023/03/10 09:01:18;;;;;;;2.65;0.95;;;;;;;;;;4973091;28;20026;-65
2023/03/10 09:03:44;;;;;;;3.33;0.80;;;;;;;;;;4973395;28;20042;-66
2023/03/10 09:06:09;;;;;;;3.95;0.75;;;;;;;;;;4970318;28;20126;-64
2023/03/10 09:08:34;;;;;;;2.75;0.70;;;;;;;;;;4972795;28;20517;-65
2023/03/10 09:11:00;;;;;;;2.60;0.50;;;;;;;;;;4972698;28;20029;-65
2023/03/10 09:13:25;;;;;;;4.05;1.20;;;;;;;;;;4972601;28;20100;-65
2023/03/10 09:15:51;;;;;;;2.47;0.60;;;;;;;;;;4970477;28;20113;-65
2023/03/10 09:18:17;;;;;;;2.58;0.60;;;;;;;;;;4971213;28;20029;-66
2023/03/10 09:20:43;;;;;;;1.93;0.50;;;;;;;;;;4972649;28;20023;-66
2023/03/10 09:23:09;;;;;;;2.95;0.60;;;;;;;;;;4972265;28;20859;-64
2023/03/10 09:25:34;;;;;;;2.28;0.40;;;;;;;;;;4972219;28;20018;-67
2023/03/10 09:27:59;;;;;;;2.38;0.55;;;;;;;;;;4972276;28;20390;-65
2023/03/10 09:30:25;;;;;;;2.45;0.60;;;;;;;;;;4972356;28;20079;-66
2023/03/10 09:32:50;;;;;;;2.27;0.40;;;;;;;;;;4972055;28;20045;-66
2023/03/10 09:35:15;;;;;;;2.30;0.50;;;;;;;;;;4971001;28;20034;-65
2023/03/10 09:37:40;;;;;;;3.03;0.57;;;;;;;;;;4971949;28;20097;-66
2023/03/10 09:40:08;;;;;;;2.47;0.47;;;;;;;;;;4972181;28;20501;-65
2023/03/10 09:42:42;;;;;;;3.17;0.88;;;;;;;;;;4972048;28;20041;-65
2023/03/10 09:45:07;;;;;;;2.28;0.50;;;;;;;;;;4970378;28;20033;-66
2023/03/10 09:47:48;;;;;;;2.37;0.50;;;;;;;;;;4972288;28;20018;-65
2023/03/10 09:50:27;;;;;;;1.90;0.40;;;;;;;;;;4972503;28;20019;-66
2023/03/10 09:52:57;;;;;;;4.38;0.40;;;;;;;;;;4972084;28;20029;-67
2023/03/10 09:55:25;;;;;;;3.10;0.52;;;;;;;;;;4971289;28;20042;-65
2023/03/10 09:57:52;;;;;;;3.95;0.65;;;;;;;;;;4972143;28;20023;-66
2023/03/10 10:00:20;;;;;;;3.38;0.50;;;;;;;;;;4972118;28;20019;-66
2023/03/10 10:02:46;;;;;;;1.75;0.40;;;;;;;;;;4971886;28;20098;-65
2023/03/10 10:05:18;;;;;;;3.65;0.70;;;;;;;;;;4969861;28;21162;-66
2023/03/10 10:08:10;;;;;;;3.67;0.60;;;;;;;;;;4971319;28;20069;-67
2023/03/10 10:10:37;;;;;;;3.05;0.70;;;;;;;;;;4970113;28;20042;-64
2023/03/10 10:13:10;;;;;;;5.95;0.60;;;;;;;;;;4971771;28;20599;-66
2023/03/10 10:15:36;;;;;;;3.10;0.60;;;;;;;;;;4970592;28;20379;-67
2023/03/10 10:18:03;;;;;;;;;;;;;;;;;;4976074;28;20078;-66
2023/03/10 10:20:32;;;;;;;2.33;0.45;;;;;;;;;;4975538;28;19906;-66
2023/03/10 10:22:57;;;;;;;3.20;0.50;;;;;;;;;;4975672;28;20027;-66
2023/03/10 10:25:23;;;;;;;1.98;0.47;;;;;;;;;;4973882;28;20030;-65
2023/03/10 10:27:52;;;;;;;4.47;0.70;;;;;;;;;;4975601;28;20037;-67
2023/03/10 10:30:26;;;;;;;1.10;0.20;;;;;;;;;;4976626;28;20026;-67
2023/03/10 10:32:55;;;;;;;2.58;0.43;;;;;;;;;;4975534;28;20030;-65
2023/03/10 10:35:22;;;;;;;2.92;0.40;;;;;;;;;;4973951;28;20401;-66
2023/03/10 10:37:57;;;;;;;2.40;0.47;;;;;;;;;;4975449;28;20030;-67
2023/03/10 10:40:26;;;;;;;2.53;0.60;;;;;;;;;;4975461;28;20015;-64
2023/03/10 10:42:52;;;;;;;2.83;0.50;;;;;;;;;;4976901;28;20030;-67
2023/03/10 10:45:24;;;;;;;4.80;0.40;;;;;;;;;;4972376;28;20041;-66
2023/03/10 10:47:50;;;;;;;2.65;0.50;;;;;;;;;;4967121;28;20018;-66
2023/03/10 10:50:16;;;;;;;2.30;0.40;;;;;;;;;;4975502;28;20069;-65
2023/03/10 10:52:45;;;;;;;2.65;0.50;;;;;;;;;;4978751;28;20025;-64
2023/03/10 10:55:21;;;;;;;4.75;0.38;;;;;;;;;;4979732;28;20065;-66
2023/03/10 10:57:52;;;;;;;2.28;0.40;;;;;;;;;;4984887;28;20391;-64
2023/03/10 11:00:20;;;;;;;0.95;0.30;;;;;;;;;;4987066;28;20034;-64
2023/03/10 11:02:45;;;;;;;3.28;0.50;;;;;;;;;;4984171;28;20150;-65
2023/03/10 11:05:11;;;;;;;2.77;0.50;;;;;;;;;;4973608;28;20062;-64
2023/03/10 11:07:36;;;;;;;4.63;0.90;;;;;;;;;;4975721;28;20065;-65
2023/03/10 11:10:01;;;;;;;3.10;0.50;;;;;;;;;;4974925;28;20054;-66
2023/03/10 11:12:33;;;;;;;3.30;0.60;;;;;;;;;;4975192;28;20019;-65
2023/03/10 11:15:21;;;;;;;1.83;0.40;;;;;;;;;;4973573;28;20026;-65
2023/03/10 11:17:50;;;;;;;2.13;0.40;;;;;;;;;;4970234;28;20023;-65
2023/03/10 11:20:23;;;;;;;2.38;0.60;;;;;;;;;;4974656;28;20063;-65
2023/03/10 11:22:53;;;;;;;2.28;0.60;;;;;;;;;;4974602;28;20025;-65
2023/03/10 11:25:21;;;;;;;2.60;0.50;;;;;;;;;;4972927;28;20427;-66
2023/03/10 11:27:46;;;;;;;2.83;0.43;;;;;;;;;;4973845;28;20030;-66
2023/03/10 11:30:16;;;;;;;2.97;0.57;;;;;;;;;;4974478;28;20015;-67
2023/03/10 11:32:49;;;;;;;3.67;0.50;;;;;;;;;;4974551;28;20113;-67
2023/03/10 11:35:18;;;;;;;1.75;0.30;;;;;;;;;;4973078;28;20509;-67
2023/03/10 11:37:45;;;;;;;5.07;0.73;;;;;;;;;;4974143;28;20055;-66
2023/03/10 11:40:18;;;;;;;2.53;0.40;;;;;;;;;;4974350;28;20026;-68
2023/03/10 11:43:02;;;;;;;4.07;0.75;;;;;;;;;;4974265;28;20520;-66
2023/03/10 11:45:27;;;;;;;;;;;;;;;;;;4973363;28;20019;-65
2023/03/10 11:48:07;;;;;;;3.03;0.52;;;;;;;;;;4974441;28;19916;-65
2023/03/10 11:50:40;;;;;;;3.15;0.50;;;;;;;;;;4970774;28;20019;-67
2023/03/10 11:53:23;;;;;;;3.88;0.60;;;;;;;;;;4955357;28;20097;-65
2023/03/10 11:55:49;;;;;;;3.53;0.60;;;;;;;;;;4958773;28;20078;-65
2023/03/10 11:58:20;;;;;;;5.32;0.73;;;;;;;;;;4974424;28;20022;-66
2023/03/10 12:00:46;;;;;;;3.20;0.50;;;;;;;;;;4975234;28;20552;-66
2023/03/10 12:03:15;;;;;;;2.92;0.47;;;;;;;;;;4974959;28;20030;-65
2023/03/10 12:05:50;;;;;;;2.92;0.60;;;;;;;;;;4972264;28;20022;-67
2023/03/10 12:08:16;;;;;;;2.80;0.68;;;;;;;;;;4976015;28;20113;-66
2023/03/10 12:10:41;;;;;;;;;;;;;;;;;;4976349;28;20023;-67
2023/03/10 12:13:15;;;;;;;3.60;0.60;;;;;;;;;;4975242;28;20004;-67
2023/03/10 12:15:40;;;;;;;6.47;0.82;;;;;;;;;;4972879;28;20023;-68
2023/03/10 12:18:06;;;;;;;2.58;0.60;;;;;;;;;;4974115;28;20168;-66
2023/03/10 12:20:32;;;;;;;3.08;0.68;;;;;;;;;;4974552;28;20023;-65
2023/03/10 12:22:59;;;;;;;3.97;0.70;;;;;;;;;;4974023;28;20022;-66
2023/03/10 12:25:28;;;;;;;3.58;0.68;;;;;;;;;;4972884;28;20502;-67
2023/03/10 12:28:12;;;;;;;2.80;0.60;;;;;;;;;;4972570;28;20558;-65
2023/03/10 12:30:44;;;;;;;3.08;0.50;;;;;;;;;;4968083;28;20030;-66
2023/03/10 12:33:09;;;;;;;;;;;;;;;;;;4973890;28;20115;-66
2023/03/10 12:35:43;;;;;;;4.72;0.70;;;;;;;;;;4971782;28;20051;-67
2023/03/10 12:38:41;;;;;;;3.05;0.70;;;;;;;;;;4972714;28;20498;-66
2023/03/10 12:41:07;;;;;;;4.38;0.60;;;;;;;;;;4949561;28;20035;-67
2023/03/10 12:43:47;;;;;;;3.35;0.60;;;;;;;;;;4973386;28;20022;-66
2023/03/10 12:46:18;;;;;;;5.05;0.57;;;;;;;;;;4970980;28;20031;-68
2023/03/10 12:48:48;;;;;;;4.70;0.80;;;;;;;;;;4973043;28;20030;-66
2023/03/10 12:51:17;;;;;;;2.95;0.70;;;;;;;;;;4973347;28;20089;-66
2023/03/10 12:53:48;;;;;;;3.13;0.70;;;;;;;;;;4973832;28;20493;-66
2023/03/10 12:56:13;;;;;;;4.35;0.90;;;;;;;;;;4970969;28;20029;-66
2023/03/10 12:58:57;;;;;;;4.85;0.60;;;;;;;;;;4972814;28;20023;-68
2023/03/10 13:01:24;;;;;;;4.75;0.60;;;;;;;;;;4972654;28;20512;-67
2023/03/10 13:03:52;;;;;;;3.72;0.70;;;;;;;;;;4972540;28;20146;-65
2023/03/10 13:06:32;;;;;;;3.40;0.60;;;;;;;;;;4971572;28;20058;-66
2023/03/10 13:09:09;;;;;;;4.25;0.82;;;;;;;;;;4972764;28;20019;-67
2023/03/10 13:11:36;;;;;;;5.03;0.85;;;;;;;;;;4972614;28;20392;-67
2023/03/10 13:14:03;;;;;;;5.93;0.88;;;;;;;;;;4972184;28;20027;-66
2023/03/10 13:16:28;;;;;;;3.90;0.75;;;;;;;;;;4970556;28;20023;-66
2023/03/10 13:18:53;;;;;;;5.07;0.80;;;;;;;;;;4965696;28;20037;-65
2023/03/10 13:21:23;;;;;;;4.23;0.70;;;;;;;;;;4972062;28;20013;-66
2023/03/10 13:23:48;;;;;;;3.60;0.70;;;;;;;;;;4971734;28;20497;-68
2023/03/10 13:26:14;;;;;;;4.88;0.90;;;;;;;;;;4971449;28;20118;-66
2023/03/10 13:28:49;;;;;;;3.42;0.68;;;;;;;;;;4972564;28;20019;-66
2023/03/10 13:31:14;;;;;;;3.92;0.60;;;;;;;;;;4972423;28;20030;-66
2023/03/10 13:33:43;;;;;;;5.03;0.70;;;;;;;;;;4973284;28;20029;-65
2023/03/10 13:36:27;;;;;;;5.47;0.90;;;;;;;;;;4973182;28;20539;-67
2023/03/10 13:38:55;;;;;;;2.30;0.60;;;;;;;;;;4976499;28;20026;-65
2023/03/10 13:41:20;;;;;;;4.78;0.70;;;;;;;;;;4976806;28;20015;-65
2023/03/10 13:43:47;;;;;;;5.90;0.90;;;;;;;;;;4976902;28;20019;-65
2023/03/10 13:46:14;;;;;;;4.05;0.68;;;;;;;;;;4975423;28;20015;-67
2023/03/10 13:48:39;;;;;;;4.55;0.70;;;;;;;;;;4972682;28;20019;-68
2023/03/10 13:51:25;;;;;;;5.00;0.80;;;;;;;;;;4970896;28;20065;-66
2023/03/10 13:53:52;;;;;;;5.30;0.80;;;;;;;;;;4971364;28;20046;-66
2023/03/10 13:56:37;;;;;;;3.40;0.60;;;;;;;;;;4971509;28;20451;-67
2023/03/10 13:59:02;;;;;;;3.40;0.70;;;;;;;;;;4971731;28;20442;-68
2023/03/10 14:01:29;;;;;;;4.40;0.70;;;;;;;;;;4971609;28;20025;-67
2023/03/10 14:03:58;;;;;;;5.80;0.70;;;;;;;;;;4972033;28;20030;-65
2023/03/10 14:06:24;;;;;;;3.28;0.70;;;;;;;;;;4959400;28;20027;-67
2023/03/10 14:08:50;;;;;;;4.10;0.90;;;;;;;;;;4971595;28;20041;-67
2023/03/10 14:11:33;;;;;;;4.65;0.77;;;;;;;;;;4968837;28;20491;-66
2023/03/10 14:13:59;;;;;;;3.40;0.55;;;;;;;;;;4970470;28;20023;-66
2023/03/10 14:16:44;;;;;;;4.38;0.70;;;;;;;;;;4972021;28;20022;-67
2023/03/10 14:19:09;;;;;;;3.70;0.80;;;;;;;;;;4970093;28;20557;-67
2023/03/10 14:21:35;;;;;;;4.75;0.75;;;;;;;;;;4970843;28;20019;-67
2023/03/10 14:24:04;;;;;;;5.18;0.80;;;;;;;;;;4971143;28;20014;-67
2023/03/10 14:26:29;;;;;;;4.38;0.80;;;;;;;;;;4966944;28;20117;-66
2023/03/10 14:28:54;;;;;;;2.92;0.60;;;;;;;;;;4967043;28;20477;-65
2023/03/10 14:31:21;;;;;;;4.18;0.55;;;;;;;;;;4967354;28;20023;-66
2023/03/10 14:33:47;;;;;;;2.80;0.50;;;;;;;;;;4967095;28;20584;-66
2023/03/10 14:36:12;;;;;;;3.55;0.45;;;;;;;;;;4962335;28;20015;-66
2023/03/10 14:38:37;;;;;;;4.47;0.80;;;;;;;;;;4967468;28;20026;-65
2023/03/10 14:41:03;;;;;;;3.55;0.50;;;;;;;;;;4967705;28;20042;-65
2023/03/10 14:43:29;;;;;;;3.70;0.60;;;;;;;;;;4960526;28;20034;-66
2023/03/10 14:45:56;;;;;;;2.78;0.40;;;;;;;;;;4966891;28;20403;-67